Wila, Pennsylvania
Current Conditions -  °F | °C
As of 3:56 PM on Thursday 18 Dec 2014 (Local Time) from KCXY Reporting Station
Overcast Overcast  
Wind Chill: 27°   Ceiling: 3100
Heat Index: 36°   Visibility: 10mi
Dew Point: 23°   Wind: 14mph
Humidity: 59%   Direction: 300°WNW
Pressure: 30.08"   Gusts: 23mph
Location:  40.4932°N, 77.217°W
Report Text: KCXY 182056Z 30012G20KT 10SM OVC031 02/M05 A3008 RMK AO2 SLP189 T00221050 56007
Loading
Personal Weather Stations






























Interactive Weather Map New forecast layout! Learn more

10-Day Weather Forecast

Advertisements
Track Severe Weather on mobile